<?xml version="1.0" encoding="utf-8"?>
<gpx xmlns:xsi="http://www.w3.org/2001/XMLSchema-instance" xmlns:xsd="http://www.w3.org/2001/XMLSchema" version="1.1" creator="Shapelink.com" xmlns="http://www.topografix.com/GPX/1/1" xmlns:gpxtpx="http://www.garmin.com/xmlschemas/TrackPointExtension/v1">
  <metadata>
    <name>Övrigt 2.27 km, 2019-07-17</name>
    <desc></desc>
    <author><name>Marian Moron</name></author> 
    <time>2019-07-17T21:03:23Z</time>
  </metadata>
  <trk>
    <name>Övrigt 2.27 km, 2019-07-17</name>
    <trkseg>
      <trkpt lat="51.229817575078" lon="4.457862804505">
        <ele>62.2</ele>
        <time>2019-07-17T21:03:23Z</time>
      </trkpt>
      <trkpt lat="51.229871386876" lon="4.457826510878">
        <ele>22.2</ele>
        <time>2019-07-17T21:03:40Z</time>
      </trkpt>
      <trkpt lat="51.229853114334" lon="4.457538257337">
        <ele>17.6</ele>
        <time>2019-07-17T21:03:52Z</time>
      </trkpt>
      <trkpt lat="51.229820089648" lon="4.457266013225">
        <ele>17.8</ele>
        <time>2019-07-17T21:04:11Z</time>
      </trkpt>
      <trkpt lat="51.229785472401" lon="4.456833004271">
        <ele>15</ele>
        <time>2019-07-17T21:04:52Z</time>
      </trkpt>
      <trkpt lat="51.22980148183" lon="4.456788244925">
        <ele>16</ele>
        <time>2019-07-17T21:04:56Z</time>
      </trkpt>
      <trkpt lat="51.229965264156" lon="4.456744323769">
        <ele>8.8</ele>
        <time>2019-07-17T21:05:18Z</time>
      </trkpt>
      <trkpt lat="51.230014214452" lon="4.456670311592">
        <ele>12.4</ele>
        <time>2019-07-17T21:05:28Z</time>
      </trkpt>
      <trkpt lat="51.229818916182" lon="4.456602837297">
        <ele>18.6</ele>
        <time>2019-07-17T21:05:50Z</time>
      </trkpt>
      <trkpt lat="51.230263827434" lon="4.456438132962">
        <ele>21.8</ele>
        <time>2019-07-17T21:06:29Z</time>
      </trkpt>
      <trkpt lat="51.230724664296" lon="4.456354565419">
        <ele>24.2</ele>
        <time>2019-07-17T21:07:02Z</time>
      </trkpt>
      <trkpt lat="51.230767998719" lon="4.456359343102">
        <ele>24.8</ele>
        <time>2019-07-17T21:07:05Z</time>
      </trkpt>
      <trkpt lat="51.230932619235" lon="4.456252473877">
        <ele>23.6</ele>
        <time>2019-07-17T21:07:14Z</time>
      </trkpt>
      <trkpt lat="51.231041416297" lon="4.456225065064">
        <ele>18</ele>
        <time>2019-07-17T21:07:27Z</time>
      </trkpt>
      <trkpt lat="51.231117272492" lon="4.456349703917">
        <ele>15</ele>
        <time>2019-07-17T21:07:45Z</time>
      </trkpt>
      <trkpt lat="51.231230009047" lon="4.456409969778">
        <ele>14.4</ele>
        <time>2019-07-17T21:07:54Z</time>
      </trkpt>
      <trkpt lat="51.231344841077" lon="4.456501835402">
        <ele>11.8</ele>
        <time>2019-07-17T21:08:03Z</time>
      </trkpt>
      <trkpt lat="51.23141415939" lon="4.456517677193">
        <ele>9.6</ele>
        <time>2019-07-17T21:08:10Z</time>
      </trkpt>
      <trkpt lat="51.231703502578" lon="4.456731415643">
        <ele>12.2</ele>
        <time>2019-07-17T21:08:47Z</time>
      </trkpt>
      <trkpt lat="51.232126872347" lon="4.457010952008">
        <ele>8</ele>
        <time>2019-07-17T21:09:19Z</time>
      </trkpt>
      <trkpt lat="51.232135170428" lon="4.457013801854">
        <ele>7.6</ele>
        <time>2019-07-17T21:09:20Z</time>
      </trkpt>
      <trkpt lat="51.232148832925" lon="4.456971054164">
        <ele>6.6</ele>
        <time>2019-07-17T21:09:41Z</time>
      </trkpt>
      <trkpt lat="51.232400625201" lon="4.457564408865">
        <ele>0</ele>
        <time>2019-07-17T21:10:10Z</time>
      </trkpt>
      <trkpt lat="51.232443372891" lon="4.45761931031">
        <ele>0</ele>
        <time>2019-07-17T21:10:13Z</time>
      </trkpt>
      <trkpt lat="51.232507410607" lon="4.457715785979">
        <ele>4.2</ele>
        <time>2019-07-17T21:10:18Z</time>
      </trkpt>
      <trkpt lat="51.232531047565" lon="4.45776347899">
        <ele>4.6</ele>
        <time>2019-07-17T21:10:21Z</time>
      </trkpt>
      <trkpt lat="51.232546134985" lon="4.457915275199">
        <ele>6.8</ele>
        <time>2019-07-17T21:10:28Z</time>
      </trkpt>
      <trkpt lat="51.232561473862" lon="4.457928350963">
        <ele>6.8</ele>
        <time>2019-07-17T21:10:35Z</time>
      </trkpt>
      <trkpt lat="51.232567676468" lon="4.458033627627">
        <ele>5.6</ele>
        <time>2019-07-17T21:10:40Z</time>
      </trkpt>
      <trkpt lat="51.232601539344" lon="4.458381895572">
        <ele>2.2</ele>
        <time>2019-07-17T21:10:59Z</time>
      </trkpt>
      <trkpt lat="51.232632468555" lon="4.458622959016">
        <ele>2.4</ele>
        <time>2019-07-17T21:11:14Z</time>
      </trkpt>
      <trkpt lat="51.232722154885" lon="4.459279848519">
        <ele>0</ele>
        <time>2019-07-17T21:11:51Z</time>
      </trkpt>
      <trkpt lat="51.232730788242" lon="4.459332989765">
        <ele>0</ele>
        <time>2019-07-17T21:11:56Z</time>
      </trkpt>
      <trkpt lat="51.232760963082" lon="4.459456036057">
        <ele>0</ele>
        <time>2019-07-17T21:12:06Z</time>
      </trkpt>
      <trkpt lat="51.232769009706" lon="4.459575478132">
        <ele>0</ele>
        <time>2019-07-17T21:12:23Z</time>
      </trkpt>
      <trkpt lat="51.23284830248" lon="4.460040086849">
        <ele>0</ele>
        <time>2019-07-17T21:12:46Z</time>
      </trkpt>
      <trkpt lat="51.232900940812" lon="4.460150895567">
        <ele>0</ele>
        <time>2019-07-17T21:12:54Z</time>
      </trkpt>
      <trkpt lat="51.232951064574" lon="4.460695635248">
        <ele>2.4</ele>
        <time>2019-07-17T21:13:23Z</time>
      </trkpt>
      <trkpt lat="51.233044271302" lon="4.46115982487">
        <ele>9.4</ele>
        <time>2019-07-17T21:13:51Z</time>
      </trkpt>
      <trkpt lat="51.233096909634" lon="4.461520078932">
        <ele>15</ele>
        <time>2019-07-17T21:14:16Z</time>
      </trkpt>
      <trkpt lat="51.233216770804" lon="4.462221308686">
        <ele>4.4</ele>
        <time>2019-07-17T21:14:50Z</time>
      </trkpt>
      <trkpt lat="51.23324560454" lon="4.46244225557">
        <ele>3.6</ele>
        <time>2019-07-17T21:15:00Z</time>
      </trkpt>
      <trkpt lat="51.233225320342" lon="4.462629255759">
        <ele>7.4</ele>
        <time>2019-07-17T21:15:21Z</time>
      </trkpt>
      <trkpt lat="51.233179219892" lon="4.462672087268">
        <ele>11.8</ele>
        <time>2019-07-17T21:15:36Z</time>
      </trkpt>
      <trkpt lat="51.233130856329" lon="4.462725228514">
        <ele>12.4</ele>
        <time>2019-07-17T21:15:41Z</time>
      </trkpt>
      <trkpt lat="51.23306707007" lon="4.462754481345">
        <ele>14</ele>
        <time>2019-07-17T21:15:52Z</time>
      </trkpt>
      <trkpt lat="51.232732464622" lon="4.462907786296">
        <ele>16.2</ele>
        <time>2019-07-17T21:16:31Z</time>
      </trkpt>
      <trkpt lat="51.232416047897" lon="4.463087075137">
        <ele>24.6</ele>
        <time>2019-07-17T21:17:50Z</time>
      </trkpt>
      <trkpt lat="51.232482935459" lon="4.463794339859">
        <ele>13.2</ele>
        <time>2019-07-17T21:18:30Z</time>
      </trkpt>
      <trkpt lat="51.232511936833" lon="4.463906992595">
        <ele>11.2</ele>
        <time>2019-07-17T21:18:35Z</time>
      </trkpt>
      <trkpt lat="51.232350501439" lon="4.464581232631">
        <ele>8.2</ele>
        <time>2019-07-17T21:19:09Z</time>
      </trkpt>
      <trkpt lat="51.232107510158" lon="4.46519487153">
        <ele>4.6</ele>
        <time>2019-07-17T21:19:43Z</time>
      </trkpt>
      <trkpt lat="51.231986810798" lon="4.465124044475">
        <ele>5.2</ele>
        <time>2019-07-17T21:19:56Z</time>
      </trkpt>
      <trkpt lat="51.231841552471" lon="4.464996639595">
        <ele>1.2</ele>
        <time>2019-07-17T21:20:17Z</time>
      </trkpt>
      <trkpt lat="51.231617336646" lon="4.46479002576">
        <ele>0.2</ele>
        <time>2019-07-17T21:20:44Z</time>
      </trkpt>
      <trkpt lat="51.23130938564" lon="4.464490037559">
        <ele>0</ele>
        <time>2019-07-17T21:21:14Z</time>
      </trkpt>
      <trkpt lat="51.231188183366" lon="4.464532449973">
        <ele>2</ele>
        <time>2019-07-17T21:21:33Z</time>
      </trkpt>
      <trkpt lat="51.231168653539" lon="4.464546280108">
        <ele>1.6</ele>
        <time>2019-07-17T21:21:35Z</time>
      </trkpt>
      <trkpt lat="51.2307260054" lon="4.464549297592">
        <ele>7.4</ele>
        <time>2019-07-17T21:22:11Z</time>
      </trkpt>
      <trkpt lat="51.23057261663" lon="4.464295074565">
        <ele>4.2</ele>
        <time>2019-07-17T21:22:29Z</time>
      </trkpt>
      <trkpt lat="51.23051897247" lon="4.464282836991">
        <ele>4</ele>
        <time>2019-07-17T21:22:34Z</time>
      </trkpt>
      <trkpt lat="51.230481421558" lon="4.464239586387">
        <ele>5.8</ele>
        <time>2019-07-17T21:22:41Z</time>
      </trkpt>
      <trkpt lat="51.230471028002" lon="4.464178901431">
        <ele>5.8</ele>
        <time>2019-07-17T21:22:44Z</time>
      </trkpt>
      <trkpt lat="51.230437584221" lon="4.464087957816">
        <ele>6.4</ele>
        <time>2019-07-17T21:22:49Z</time>
      </trkpt>
      <trkpt lat="51.230425179009" lon="4.463995170183">
        <ele>7.8</ele>
        <time>2019-07-17T21:22:54Z</time>
      </trkpt>
      <trkpt lat="51.230323087467" lon="4.463891821356">
        <ele>9.4</ele>
        <time>2019-07-17T21:23:19Z</time>
      </trkpt>
      <trkpt lat="51.230286374745" lon="4.463937837987">
        <ele>8.2</ele>
        <time>2019-07-17T21:23:24Z</time>
      </trkpt>
      <trkpt lat="51.230073139209" lon="4.46421502742">
        <ele>3</ele>
        <time>2019-07-17T21:24:14Z</time>
      </trkpt>
      <trkpt lat="51.229686146886" lon="4.464222990225">
        <ele>19.4</ele>
        <time>2019-07-17T21:24:49Z</time>
      </trkpt>
      <trkpt lat="51.229660498272" lon="4.464264061535">
        <ele>21.8</ele>
        <time>2019-07-17T21:24:52Z</time>
      </trkpt>
      <trkpt lat="51.229262609479" lon="4.464393478071">
        <ele>4.4</ele>
        <time>2019-07-17T21:25:34Z</time>
      </trkpt>
      <trkpt lat="51.22882834324" lon="4.464242268595">
        <ele>5</ele>
        <time>2019-07-17T21:26:18Z</time>
      </trkpt>
      <trkpt lat="51.228802024074" lon="4.464242603871">
        <ele>4.2</ele>
        <time>2019-07-17T21:26:20Z</time>
      </trkpt>
      <trkpt lat="51.228657017204" lon="4.464263055707">
        <ele>4.6</ele>
        <time>2019-07-17T21:26:36Z</time>
      </trkpt>
      <trkpt lat="51.228581161009" lon="4.464199437086">
        <ele>2.8</ele>
        <time>2019-07-17T21:26:54Z</time>
      </trkpt>
      <trkpt lat="51.22852324208" lon="4.463988883758">
        <ele>0.2</ele>
        <time>2019-07-17T21:27:17Z</time>
      </trkpt>
      <trkpt lat="51.228467334807" lon="4.463462416619">
        <ele>3.2</ele>
        <time>2019-07-17T21:28:05Z</time>
      </trkpt>
      <trkpt lat="51.228384773092" lon="4.463441629507">
        <ele>0.4</ele>
        <time>2019-07-17T21:28:12Z</time>
      </trkpt>
      <trkpt lat="51.22801781351" lon="4.463075591934">
        <ele>6.8</ele>
        <time>2019-07-17T21:29:06Z</time>
      </trkpt>
      <trkpt lat="51.22789459958" lon="4.462967381605">
        <ele>7.8</ele>
        <time>2019-07-17T21:29:33Z</time>
      </trkpt>
      <trkpt lat="51.227894348123" lon="4.462967046329">
        <ele>7.6</ele>
        <time>2019-07-17T21:29:34Z</time>
      </trkpt>
      <trkpt lat="51.22788621768" lon="4.46295858061">
        <ele>7.8</ele>
        <time>2019-07-17T21:29:44Z</time>
      </trkpt>
      <trkpt lat="51.227871800812" lon="4.462923628087">
        <ele>7.4</ele>
        <time>2019-07-17T21:29:47Z</time>
      </trkpt>
      <trkpt lat="51.227869705337" lon="4.462876186533">
        <ele>7.2</ele>
        <time>2019-07-17T21:29:50Z</time>
      </trkpt>
      <trkpt lat="51.227859982333" lon="4.46266018497">
        <ele>11.6</ele>
        <time>2019-07-17T21:30:07Z</time>
      </trkpt>
      <trkpt lat="51.22782251524" lon="4.462210412216">
        <ele>12.6</ele>
        <time>2019-07-17T21:30:39Z</time>
      </trkpt>
      <trkpt lat="51.227781527749" lon="4.461941520864">
        <ele>6.6</ele>
        <time>2019-07-17T21:31:07Z</time>
      </trkpt>
      <trkpt lat="51.22779066402" lon="4.461807159007">
        <ele>5.2</ele>
        <time>2019-07-17T21:31:18Z</time>
      </trkpt>
      <trkpt lat="51.227849588777" lon="4.461649076373">
        <ele>3.2</ele>
        <time>2019-07-17T21:31:35Z</time>
      </trkpt>
      <trkpt lat="51.227863167455" lon="4.461590067797">
        <ele>3.6</ele>
        <time>2019-07-17T21:31:40Z</time>
      </trkpt>
      <trkpt lat="51.227875656486" lon="4.461285804827">
        <ele>7</ele>
        <time>2019-07-17T21:32:07Z</time>
      </trkpt>
      <trkpt lat="51.227879176884" lon="4.460606870927">
        <ele>4.4</ele>
        <time>2019-07-17T21:32:50Z</time>
      </trkpt>
      <trkpt lat="51.228078498466" lon="4.460459600944">
        <ele>16</ele>
        <time>2019-07-17T21:33:30Z</time>
      </trkpt>
      <trkpt lat="51.228413271552" lon="4.459890469934">
        <ele>3.8</ele>
        <time>2019-07-17T21:34:08Z</time>
      </trkpt>
      <trkpt lat="51.228559703345" lon="4.459259564321">
        <ele>0</ele>
        <time>2019-07-17T21:34:46Z</time>
      </trkpt>
      <trkpt lat="51.228559451888" lon="4.459147079223">
        <ele>0</ele>
        <time>2019-07-17T21:34:52Z</time>
      </trkpt>
      <trkpt lat="51.228578981715" lon="4.45908614281">
        <ele>0</ele>
        <time>2019-07-17T21:34:57Z</time>
      </trkpt>
      <trkpt lat="51.228578311163" lon="4.459003413457">
        <ele>0</ele>
        <time>2019-07-17T21:35:03Z</time>
      </trkpt>
      <trkpt lat="51.22857353348" lon="4.458825214263">
        <ele>2.2</ele>
        <time>2019-07-17T21:35:17Z</time>
      </trkpt>
      <trkpt lat="51.228605049424" lon="4.458580881878">
        <ele>6.2</ele>
        <time>2019-07-17T21:35:40Z</time>
      </trkpt>
      <trkpt lat="51.22859616461" lon="4.458329843973">
        <ele>7.4</ele>
        <time>2019-07-17T21:35:56Z</time>
      </trkpt>
      <trkpt lat="51.228715606685" lon="4.458196907039">
        <ele>6.6</ele>
        <time>2019-07-17T21:36:19Z</time>
      </trkpt>
      <trkpt lat="51.229169654208" lon="4.458134294246">
        <ele>9.6</ele>
        <time>2019-07-17T21:37:01Z</time>
      </trkpt>
      <trkpt lat="51.229612218528" lon="4.457967242979">
        <ele>4.8</ele>
        <time>2019-07-17T21:37:39Z</time>
      </trkpt>
      <trkpt lat="51.229661755557" lon="4.457965398961">
        <ele>4.8</ele>
        <time>2019-07-17T21:37:43Z</time>
      </trkpt>
      <trkpt lat="51.229791675007" lon="4.457911922439">
        <ele>3</ele>
        <time>2019-07-17T21:37:55Z</time>
      </trkpt>
      <trkpt lat="51.229859233121" lon="4.4580224797">
        <ele>2.6</ele>
        <time>2019-07-17T21:38:20Z</time>
      </trkpt>
      <trkpt lat="51.229723362522" lon="4.458053744187">
        <ele>0.2</ele>
        <time>2019-07-17T21:38:36Z</time>
      </trkpt>
      <trkpt lat="51.22972185378" lon="4.45806187463">
        <ele>0</ele>
        <time>2019-07-17T21:38:45Z</time>
      </trkpt>
      <trkpt lat="51.229731660603" lon="4.458091965651">
        <ele>0</ele>
        <time>2019-07-17T21:38:56Z</time>
      </trkpt>
      <trkpt lat="51.22973610301" lon="4.458104203225">
        <ele>0</ele>
        <time>2019-07-17T21:38:59Z</time>
      </trkpt>
      <trkpt lat="51.229737611752" lon="4.458108561813">
        <ele>0</ele>
        <time>2019-07-17T21:39:00Z</time>
      </trkpt>
    </trkseg>
  </trk>
</gpx>